Time;durP1;ratioP1;P1;durP2;ratioP2;P2;SDS_P1;SDS_P2;PMS_P1;PMS_P2;Temp;Humidity;BMP_temperature;BMP_pressure;BME280_temperature;BME280_humidity;BME280_pressure;Samples;Min_cycle;Max_cycle;Signal;HPM_P1;HPM_P2
2023/01/22 00:00:08;;;;;;;0.70;0.70;;;;;;;7.83;100.00;99339.31;5051924;28;20269;-64
2023/01/22 00:02:36;;;;;;;0.50;0.50;;;;;;;7.82;100.00;99342.72;5050982;28;20251;-64
2023/01/22 00:05:03;;;;;;;0.87;0.87;;;;;;;7.85;100.00;99347.78;5052022;28;20726;-64
2023/01/22 00:07:30;;;;;;;0.43;0.43;;;;;;;7.88;100.00;99352.81;5052075;28;20634;-64
2023/01/22 00:09:56;;;;;;;1.10;1.10;;;;;;;7.81;100.00;99351.25;5051543;28;20201;-64
2023/01/22 00:12:24;;;;;;;0.60;0.60;;;;;;;7.72;100.00;99351.44;5051602;28;20219;-64
2023/01/22 00:14:51;;;;;;;0.57;0.57;;;;;;;7.66;100.00;99357.50;5052043;28;20611;-64
2023/01/22 00:17:18;;;;;;;0.80;0.80;;;;;;;7.67;100.00;99363.44;5051782;28;20584;-64
2023/01/22 00:19:45;;;;;;;0.60;0.60;;;;;;;7.71;100.00;99360.81;5051533;28;20676;-64
2023/01/22 00:22:12;;;;;;;0.40;0.40;;;;;;;7.72;100.00;99362.47;5051662;28;20550;-64
2023/01/22 00:24:39;;;;;;;2.10;2.00;;;;;;;7.74;100.00;99355.66;5051431;28;20212;-64
2023/01/22 00:27:05;;;;;;;0.70;0.70;;;;;;;7.77;100.00;99359.84;5052027;28;20712;-65
2023/01/22 00:29:33;;;;;;;0.60;0.60;;;;;;;7.86;100.00;99357.09;5051000;28;20201;-64
2023/01/22 00:32:00;;;;;;;0.70;0.70;;;;;;;7.82;100.00;99352.91;5051699;28;20588;-64
2023/01/22 00:34:27;;;;;;;0.60;0.60;;;;;;;7.81;100.00;99357.22;5051360;28;20196;-64
2023/01/22 00:36:54;;;;;;;0.50;0.50;;;;;;;7.78;100.00;99364.09;5051600;28;20215;-64
2023/01/22 00:39:21;;;;;;;0.60;0.60;;;;;;;7.88;100.00;99378.34;5050998;28;20200;-62
2023/01/22 00:41:48;;;;;;;0.50;0.50;;;;;;;7.95;100.00;99373.97;5051079;28;20207;-64
2023/01/22 00:44:15;;;;;;;0.50;0.50;;;;;;;7.95;100.00;99376.50;5051222;28;20296;-64
2023/01/22 00:46:43;;;;;;;0.60;0.60;;;;;;;7.97;100.00;99378.16;5050997;28;20196;-64
2023/01/22 00:49:11;;;;;;;0.60;0.60;;;;;;;7.97;100.00;99385.81;5050910;28;20215;-64
2023/01/22 00:51:38;;;;;;;0.50;0.50;;;;;;;8.00;100.00;99388.31;5050622;28;20219;-64
2023/01/22 00:54:05;;;;;;;0.53;0.53;;;;;;;7.98;100.00;99387.47;5049537;28;20571;-64
2023/01/22 00:56:32;;;;;;;0.80;0.80;;;;;;;8.06;100.00;99383.06;5050750;28;20205;-64
2023/01/22 00:58:58;;;;;;;0.43;0.43;;;;;;;8.13;100.00;99381.25;5048609;28;20235;-64
2023/01/22 01:01:25;;;;;;;0.50;0.50;;;;;;;8.17;100.00;99386.25;5050712;28;20224;-64
2023/01/22 01:03:53;;;;;;;0.40;0.40;;;;;;;8.23;100.00;99400.59;5050762;28;20217;-64
2023/01/22 01:06:21;;;;;;;0.50;0.50;;;;;;;8.23;100.00;99396.34;5050527;28;20204;-64
2023/01/22 01:08:49;;;;;;;0.53;0.53;;;;;;;8.28;100.00;99404.78;5049719;28;20199;-64
2023/01/22 01:11:20;;;;;;;0.43;0.43;;;;;;;8.31;100.00;99416.63;5050719;28;20197;-64
2023/01/22 01:13:47;;;;;;;0.57;0.57;;;;;;;8.30;100.00;99423.44;5050660;28;20662;-64
2023/01/22 01:16:16;;;;;;;0.43;0.43;;;;;;;8.34;100.00;99435.28;5050648;28;20254;-64
2023/01/22 01:18:43;;;;;;;1.50;1.50;;;;;;;8.37;100.00;99430.13;5050238;28;20197;-64
2023/01/22 01:21:12;;;;;;;0.40;0.40;;;;;;;8.37;100.00;99434.38;5051202;28;20208;-64
2023/01/22 01:23:41;;;;;;;0.60;0.60;;;;;;;8.40;100.00;99435.16;5050304;28;20255;-62
2023/01/22 01:26:10;;;;;;;0.40;0.40;;;;;;;8.41;100.00;99439.41;5050643;28;20207;-64
2023/01/22 01:28:38;;;;;;;0.60;0.60;;;;;;;8.43;100.00;99450.41;5050019;28;20196;-64
2023/01/22 01:31:07;;;;;;;0.50;0.50;;;;;;;8.49;100.00;99454.59;5050655;28;20207;-64
2023/01/22 01:33:34;;;;;;;0.87;0.87;;;;;;;8.53;100.00;99460.47;5050195;28;20200;-64
2023/01/22 01:36:02;;;;;;;0.50;0.50;;;;;;;8.57;100.00;99457.78;5050623;28;20668;-64
2023/01/22 01:38:31;;;;;;;1.30;1.30;;;;;;;8.58;100.00;99459.50;5050299;28;20196;-64
2023/01/22 01:40:58;;;;;;;0.60;0.60;;;;;;;8.57;100.00;99452.69;5050408;28;20201;-64
2023/01/22 01:43:25;;;;;;;0.40;0.40;;;;;;;8.59;100.00;99461.19;5050463;28;20223;-64
2023/01/22 01:45:52;;;;;;;0.73;0.73;;;;;;;8.63;100.00;99459.38;5050108;28;20269;-64
2023/01/22 01:48:28;;;;;;;2.03;1.93;;;;;;;8.62;100.00;99458.56;5050351;28;20627;-64
2023/01/22 01:51:01;;;;;;;0.80;0.80;;;;;;;8.64;100.00;99448.28;5047990;28;20219;-64
2023/01/22 01:53:29;;;;;;;0.77;0.77;;;;;;;8.64;100.00;99444.03;5050369;28;20197;-64
2023/01/22 01:55:59;;;;;;;1.27;1.27;;;;;;;8.69;100.00;99449.06;5048112;28;20193;-64
2023/01/22 01:58:29;;;;;;;0.40;0.40;;;;;;;8.67;100.00;99454.19;5049857;28;20197;-64
2023/01/22 02:01:01;;;;;;;0.50;0.50;;;;;;;8.71;100.00;99440.47;5049958;28;20240;-64
2023/01/22 02:03:28;;;;;;;0.80;0.80;;;;;;;8.74;100.00;99437.00;5047231;28;20220;-64
2023/01/22 02:05:55;;;;;;;0.67;0.67;;;;;;;8.66;100.00;99413.34;5050011;28;20250;-64
2023/01/22 02:08:22;;;;;;;0.40;0.40;;;;;;;8.73;100.00;99413.16;5050173;28;20200;-65
2023/01/22 02:10:49;;;;;;;0.60;0.60;;;;;;;8.74;100.00;99424.22;5048733;28;20205;-65
2023/01/22 02:13:20;;;;;;;0.70;0.70;;;;;;;8.78;100.00;99420.72;5049790;28;20208;-64
2023/01/22 02:15:47;;;;;;;0.70;0.70;;;;;;;8.81;100.00;99411.28;5049910;28;20201;-64
2023/01/22 02:18:14;;;;;;;0.83;0.83;;;;;;;8.84;100.00;99407.81;5049863;28;20205;-64
2023/01/22 02:20:51;;;;;;;0.60;0.60;;;;;;;8.80;100.00;99406.19;5050014;28;20199;-64
2023/01/22 02:23:18;;;;;;;0.80;0.80;;;;;;;8.78;100.00;99410.50;5049764;28;20830;-64
2023/01/22 02:25:45;;;;;;;0.53;0.53;;;;;;;8.77;100.00;99408.81;5049859;28;20201;-64
2023/01/22 02:28:12;;;;;;;0.60;0.60;;;;;;;8.79;100.00;99407.06;5049994;28;20664;-64
2023/01/22 02:30:39;;;;;;;1.27;1.27;;;;;;;8.75;100.00;99406.31;5050361;28;20656;-64
2023/01/22 02:33:05;;;;;;;0.50;0.50;;;;;;;8.66;100.00;99403.13;5049829;28;20197;-64
2023/01/22 02:35:32;;;;;;;0.43;0.43;;;;;;;8.67;100.00;99407.34;5049881;28;20204;-64
2023/01/22 02:38:00;;;;;;;0.40;0.40;;;;;;;8.76;100.00;99422.47;5049836;28;20209;-64
2023/01/22 02:40:29;;;;;;;0.50;0.50;;;;;;;8.85;100.00;99433.31;5049468;28;20750;-64
2023/01/22 02:42:56;;;;;;;0.43;0.43;;;;;;;8.73;100.00;99417.41;5049664;28;20231;-65
2023/01/22 02:45:23;;;;;;;0.50;0.50;;;;;;;8.83;100.00;99429.13;5049633;28;20228;-64
2023/01/22 02:47:50;;;;;;;0.50;0.50;;;;;;;8.80;100.00;99417.25;5049704;28;20665;-65
2023/01/22 02:50:17;;;;;;;0.60;0.60;;;;;;;8.88;100.00;99442.66;5049494;28;20295;-64
2023/01/22 02:52:44;;;;;;;0.70;0.70;;;;;;;8.86;100.00;99444.38;5049515;28;20580;-65
2023/01/22 02:55:12;;;;;;;0.50;0.50;;;;;;;8.87;100.00;99449.47;5049682;28;20196;-64
2023/01/22 02:57:39;;;;;;;0.80;0.80;;;;;;;8.82;100.00;99463.25;5049624;28;20687;-65
2023/01/22 03:00:07;;;;;;;0.67;0.67;;;;;;;8.86;100.00;99462.28;5049160;28;20201;-65
2023/01/22 03:02:34;;;;;;;0.40;0.40;;;;;;;8.80;100.00;99454.75;5051835;28;20311;-64
2023/01/22 03:05:03;;;;;;;0.50;0.50;;;;;;;8.85;100.00;99452.94;5048934;28;20569;-65
2023/01/22 03:07:40;;;;;;;0.60;0.60;;;;;;;8.89;100.00;99446.88;5053205;28;20289;-64
2023/01/22 03:10:10;;;;;;;0.40;0.40;;;;;;;8.93;100.00;99457.00;5052784;28;20200;-65
2023/01/22 03:23:34;;;;;;;0.63;0.63;;;;;;;8.88;100.00;99438.38;5052706;28;20212;-64
2023/01/22 03:26:01;;;;;;;0.50;0.50;;;;;;;8.89;100.00;99454.53;5052561;28;20196;-65
2023/01/22 03:28:29;;;;;;;0.50;0.50;;;;;;;8.92;100.00;99449.34;5052558;28;20196;-64
2023/01/22 03:30:55;;;;;;;1.07;0.93;;;;;;;8.93;100.00;99448.50;5052766;28;20192;-64
2023/01/22 03:33:22;;;;;;;0.80;0.80;;;;;;;8.94;100.00;99457.84;5052612;28;20257;-64
2023/01/22 03:35:49;;;;;;;0.60;0.60;;;;;;;8.88;100.00;99442.66;5052242;28;20204;-64
2023/01/22 03:38:16;;;;;;;0.83;0.83;;;;;;;9.05;100.00;99460.97;5052461;28;20196;-64
2023/01/22 03:40:43;;;;;;;0.50;0.50;;;;;;;9.05;100.00;99455.88;5052129;28;20209;-64
2023/01/22 03:43:10;;;;;;;0.70;0.70;;;;;;;9.05;100.00;99450.75;5052555;28;20196;-65
2023/01/22 03:45:38;;;;;;;0.50;0.50;;;;;;;9.07;100.00;99454.13;5052181;28;20718;-64
2023/01/22 03:48:05;;;;;;;1.00;1.00;;;;;;;9.07;100.00;99454.13;5052226;28;20200;-65
2023/01/22 03:50:32;;;;;;;0.40;0.40;;;;;;;9.09;100.00;99462.59;5052070;28;20201;-65
2023/01/22 03:52:59;;;;;;;0.50;0.50;;;;;;;9.12;100.00;99472.75;5051917;28;20201;-64
2023/01/22 03:55:25;;;;;;;0.50;0.50;;;;;;;9.16;100.00;99476.94;5051048;28;20274;-65
2023/01/22 03:57:52;;;;;;;0.90;0.90;;;;;;;9.18;100.00;99482.84;5052275;28;20293;-64
2023/01/22 04:00:20;;;;;;;0.50;0.50;;;;;;;9.20;100.00;99478.56;5052236;28;20211;-65
2023/01/22 04:02:48;;;;;;;0.63;0.63;;;;;;;9.22;100.00;99487.03;5052285;28;20220;-64
2023/01/22 04:05:15;;;;;;;1.00;1.00;;;;;;;9.26;100.00;99485.22;5052122;28;20684;-64
2023/01/22 04:07:42;;;;;;;0.70;0.70;;;;;;;9.24;100.00;99475.03;5052045;28;20213;-63
2023/01/22 04:10:10;;;;;;;0.50;0.50;;;;;;;9.28;100.00;99479.19;5051883;28;20192;-64
2023/01/22 04:12:37;;;;;;;0.83;0.83;;;;;;;9.27;100.00;99482.63;5051881;28;20204;-65
2023/01/22 04:15:05;;;;;;;2.00;1.90;;;;;;;9.23;100.00;99475.91;5051829;28;20193;-65
2023/01/22 04:17:31;;;;;;;0.77;0.77;;;;;;;9.36;100.00;99496.94;5052015;28;20259;-65
2023/01/22 04:20:00;;;;;;;0.67;0.67;;;;;;;9.38;100.00;99508.81;5050967;28;20200;-65
2023/01/22 04:22:26;;;;;;;1.40;1.40;;;;;;;9.34;100.00;99499.50;5052258;28;20208;-65
2023/01/22 04:24:53;;;;;;;0.57;0.57;;;;;;;9.40;100.00;99509.59;5051543;28;20270;-64
2023/01/22 04:27:20;;;;;;;0.60;0.60;;;;;;;9.42;100.00;99515.53;5051795;28;20208;-65
2023/01/22 04:29:47;;;;;;;0.43;0.43;;;;;;;9.43;100.00;99524.06;5052033;28;20204;-65
2023/01/22 04:32:13;;;;;;;0.60;0.60;;;;;;;9.45;100.00;99530.81;5051351;28;20193;-65
2023/01/22 04:34:40;;;;;;;0.70;0.70;;;;;;;9.45;100.00;99528.25;5051574;28;20576;-65
2023/01/22 04:37:08;;;;;;;0.47;0.47;;;;;;;9.44;100.00;99521.44;5051739;28;20208;-64
2023/01/22 04:39:35;;;;;;;0.50;0.50;;;;;;;9.48;100.00;99533.31;5051568;28;20200;-65
2023/01/22 04:42:02;;;;;;;0.60;0.60;;;;;;;9.47;100.00;99531.59;5051394;28;20561;-64
2023/01/22 04:44:29;;;;;;;0.60;0.60;;;;;;;9.43;100.00;99535.09;5051396;28;20212;-64
2023/01/22 04:46:55;;;;;;;0.47;0.47;;;;;;;9.41;100.00;99542.00;5051567;28;20668;-64
2023/01/22 04:49:22;;;;;;;2.10;1.17;;;;;;;9.43;100.00;99545.34;5051173;28;20196;-64
2023/01/22 04:51:49;;;;;;;0.70;0.70;;;;;;;9.40;100.00;99560.78;5050817;28;20622;-58
2023/01/22 04:54:17;;;;;;;0.53;0.53;;;;;;;9.37;100.00;99565.97;5051352;28;20200;-58
2023/01/22 04:56:44;;;;;;;0.40;0.40;;;;;;;9.29;100.00;99572.97;5051111;28;20200;-57
2023/01/22 04:59:11;;;;;;;0.80;0.80;;;;;;;9.20;100.00;99557.84;5051264;28;20196;-58
2023/01/22 05:01:38;;;;;;;0.60;0.60;;;;;;;9.27;100.00;99573.91;5048412;28;20224;-57
2023/01/22 05:04:05;;;;;;;0.60;0.60;;;;;;;9.26;100.00;99578.16;5051067;28;20212;-58
2023/01/22 05:06:31;;;;;;;0.70;0.70;;;;;;;9.24;100.00;99572.22;5048669;28;20699;-58
2023/01/22 05:08:58;;;;;;;1.10;1.10;;;;;;;9.18;100.00;99585.16;5049866;28;20200;-58
2023/01/22 05:11:26;;;;;;;0.60;0.60;;;;;;;9.10;100.00;99592.16;5050591;28;20207;-58
2023/01/22 05:13:54;;;;;;;0.77;0.70;;;;;;;9.11;100.00;99587.88;5050886;28;20204;-58
2023/01/22 05:16:21;;;;;;;0.60;0.60;;;;;;;9.00;100.00;99593.22;5050930;28;20688;-58
2023/01/22 05:18:47;;;;;;;2.00;2.00;;;;;;;8.97;100.00;99600.97;5051195;28;20630;-58
2023/01/22 05:21:14;;;;;;;0.80;0.80;;;;;;;8.90;100.00;99578.94;5050698;28;20215;-58
2023/01/22 05:23:43;;;;;;;0.50;0.50;;;;;;;8.99;100.00;99594.09;5050198;28;20266;-57
2023/01/22 05:26:10;;;;;;;0.47;0.47;;;;;;;9.00;100.00;99595.78;5050710;28;20762;-58
2023/01/22 05:28:38;;;;;;;0.67;0.67;;;;;;;9.05;100.00;99588.84;5050668;28;20196;-58
2023/01/22 05:31:05;;;;;;;0.50;0.50;;;;;;;9.06;100.00;99589.69;5050455;28;20575;-58
2023/01/22 05:33:32;;;;;;;0.50;0.50;;;;;;;8.98;100.00;99577.09;5050794;28;20684;-57
2023/01/22 05:36:01;;;;;;;0.50;0.50;;;;;;;9.00;100.00;99590.66;5050617;28;20203;-57
2023/01/22 05:38:29;;;;;;;0.40;0.40;;;;;;;9.14;100.00;99614.25;5050727;28;20192;-58
2023/01/22 05:40:56;;;;;;;0.50;0.50;;;;;;;9.12;100.00;99621.09;5050447;28;20211;-57
2023/01/22 05:43:23;;;;;;;0.70;0.70;;;;;;;9.08;100.00;99627.13;5050477;28;20196;-58
2023/01/22 05:45:51;;;;;;;0.60;0.60;;;;;;;9.11;100.00;99629.63;5050495;28;20217;-57
2023/01/22 05:48:18;;;;;;;0.50;0.50;;;;;;;9.14;100.00;99621.91;5050709;28;20676;-57
2023/01/22 05:50:45;;;;;;;0.83;0.83;;;;;;;9.14;100.00;99639.81;5050068;28;20306;-57
2023/01/22 05:53:12;;;;;;;1.17;1.07;;;;;;;9.14;100.00;99639.81;5050868;28;20196;-58
2023/01/22 05:55:38;;;;;;;0.80;0.80;;;;;;;9.18;100.00;99640.56;5050486;28;20192;-57
2023/01/22 05:58:05;;;;;;;0.70;0.70;;;;;;;9.21;100.00;99649.03;5050417;28;20205;-57
2023/01/22 06:00:32;;;;;;;0.63;0.63;;;;;;;9.26;100.00;99654.91;5050080;28;20203;-58
2023/01/22 06:03:01;;;;;;;0.70;0.70;;;;;;;9.28;100.00;99657.41;5050461;28;20666;-58
2023/01/22 06:05:28;;;;;;;0.50;0.50;;;;;;;9.25;100.00;99637.88;5049328;28;20213;-57
2023/01/22 06:07:55;;;;;;;0.60;0.60;;;;;;;9.26;100.00;99634.44;5050260;28;20200;-57
2023/01/22 06:10:21;;;;;;;0.50;0.50;;;;;;;9.26;100.00;99634.44;5050244;28;20212;-58
2023/01/22 06:12:48;;;;;;;0.87;0.87;;;;;;;9.29;100.00;99652.28;5049908;28;20297;-58
2023/01/22 06:15:15;;;;;;;0.40;0.40;;;;;;;9.29;100.00;99670.19;5050209;28;20200;-58
2023/01/22 06:17:42;;;;;;;0.53;0.53;;;;;;;9.27;100.00;99673.66;5050046;28;20700;-58
2023/01/22 06:20:11;;;;;;;0.60;0.60;;;;;;;9.30;100.00;99671.88;5050270;28;20203;-57
2023/01/22 06:22:38;;;;;;;0.60;0.60;;;;;;;9.33;100.00;99671.81;5049528;28;20205;-58
2023/01/22 06:25:05;;;;;;;0.70;0.70;;;;;;;9.28;100.00;99663.38;5050181;28;20225;-58
2023/01/22 06:27:32;;;;;;;0.40;0.40;;;;;;;9.34;100.00;99678.59;5050228;28;20208;-57
2023/01/22 06:29:59;;;;;;;0.40;0.40;;;;;;;9.33;100.00;99687.16;5050208;28;20265;-57
2023/01/22 06:32:25;;;;;;;0.60;0.60;;;;;;;9.36;100.00;99684.53;5048970;28;20201;-59
2023/01/22 06:34:52;;;;;;;1.00;1.00;;;;;;;9.37;100.00;99691.31;5049826;28;20208;-58
2023/01/22 06:37:21;;;;;;;0.60;0.60;;;;;;;9.38;100.00;99699.84;5053700;28;20209;-57
2023/01/22 06:39:48;;;;;;;0.60;0.60;;;;;;;9.37;100.00;99704.13;5053497;28;20197;-57
2023/01/22 06:42:15;;;;;;;1.73;1.63;;;;;;;9.25;100.00;99698.41;5053717;28;20208;-58
2023/01/22 06:44:42;;;;;;;0.60;0.60;;;;;;;9.32;100.00;99705.94;5052571;28;20684;-57
2023/01/22 06:47:08;;;;;;;1.13;1.13;;;;;;;9.37;100.00;99714.34;5053799;28;20558;-58
2023/01/22 06:49:35;;;;;;;0.50;0.50;;;;;;;9.40;100.00;99721.16;5053660;28;20665;-58
2023/01/22 06:52:02;;;;;;;0.53;0.53;;;;;;;9.38;100.00;99725.44;5053520;28;20201;-57
2023/01/22 06:54:31;;;;;;;1.03;1.03;;;;;;;9.42;100.00;99722.78;5053708;28;20201;-57
2023/01/22 06:56:57;;;;;;;6.37;1.03;;;;;;;9.45;100.00;99722.72;5053455;28;20203;-58
2023/01/22 06:59:24;;;;;;;0.70;0.70;;;;;;;9.47;100.00;99728.66;5053254;28;20750;-58
2023/01/22 07:01:51;;;;;;;0.60;0.60;;;;;;;9.43;100.00;99719.34;5053478;28;20282;-65
2023/01/22 07:04:18;;;;;;;0.43;0.43;;;;;;;9.41;100.00;99721.09;5053259;28;20200;-65
2023/01/22 07:06:44;;;;;;;0.60;0.60;;;;;;;9.52;100.00;99717.47;5053332;28;20307;-65
2023/01/22 07:09:11;;;;;;;0.50;0.50;;;;;;;9.47;100.00;99726.09;5053060;28;20251;-65
2023/01/22 07:11:39;;;;;;;1.10;1.10;;;;;;;9.50;100.00;99720.06;5052819;28;20200;-65
2023/01/22 07:14:06;;;;;;;0.77;0.77;;;;;;;9.54;100.00;99721.69;5049482;28;20200;-64
2023/01/22 07:16:33;;;;;;;0.53;0.53;;;;;;;9.58;100.00;99728.44;5053273;28;20201;-65
2023/01/22 07:19:00;;;;;;;0.87;0.87;;;;;;;9.59;100.00;99732.69;5053193;28;20199;-65
2023/01/22 07:21:27;;;;;;;0.80;0.80;;;;;;;9.56;100.00;99731.91;5053183;28;20197;-65
2023/01/22 07:23:54;;;;;;;0.50;0.50;;;;;;;9.66;100.00;99751.31;5052886;28;20262;-65
2023/01/22 07:26:20;;;;;;;1.17;1.17;;;;;;;9.70;100.00;99751.22;5052803;28;20311;-65
2023/01/22 07:28:49;;;;;;;0.47;0.47;;;;;;;9.73;100.00;99742.63;5053099;28;20270;-65
2023/01/22 07:31:16;;;;;;;0.70;0.70;;;;;;;9.72;100.00;99746.91;5052957;28;20691;-64
2023/01/22 07:33:42;;;;;;;0.50;0.50;;;;;;;9.72;100.00;99744.34;5052882;28;20668;-65
2023/01/22 07:36:09;;;;;;;1.70;1.57;;;;;;;9.73;100.00;99756.25;5051433;28;20192;-65
2023/01/22 07:38:36;;;;;;;0.60;0.60;;;;;;;9.70;100.00;99750.38;5052997;28;20207;-65
2023/01/22 07:41:04;;;;;;;0.40;0.40;;;;;;;9.76;100.00;99757.91;5049375;28;20205;-65
2023/01/22 07:43:32;;;;;;;0.77;0.77;;;;;;;9.81;100.00;99766.34;5052168;28;20197;-65
2023/01/22 07:46:02;;;;;;;1.37;1.37;;;;;;;9.86;100.00;99769.66;5052646;28;20217;-65
2023/01/22 07:48:29;;;;;;;0.87;0.87;;;;;;;9.88;100.00;99762.78;5051735;28;20204;-65
2023/01/22 07:50:59;;;;;;;0.40;0.40;;;;;;;9.98;100.00;99759.97;5052419;28;20193;-65
2023/01/22 07:53:26;;;;;;;0.70;0.70;;;;;;;10.01;100.00;99759.94;5052200;28;20196;-65
2023/01/22 07:55:53;;;;;;;1.73;1.73;;;;;;;9.99;100.00;99760.81;5052588;28;20196;-65
2023/01/22 07:58:20;;;;;;;0.60;0.60;;;;;;;10.05;100.00;99773.50;5052140;28;20204;-65
2023/01/22 08:00:47;;;;;;;0.50;0.50;;;;;;;10.11;100.00;99775.94;5052218;28;20572;-65
2023/01/22 08:03:15;;;;;;;0.50;0.50;;;;;;;10.14;100.00;99780.19;5049987;28;20197;-65
2023/01/22 08:05:43;;;;;;;0.40;0.40;;;;;;;10.19;100.00;99786.03;5048626;28;20212;-65
2023/01/22 08:08:13;;;;;;;0.63;0.63;;;;;;;10.25;100.00;99791.88;5049540;28;20235;-65
2023/01/22 08:10:40;;;;;;;0.47;0.47;;;;;;;10.21;100.00;99780.00;5051769;28;20255;-65
2023/01/22 08:13:07;;;;;;;0.57;0.57;;;;;;;10.26;100.00;99785.88;5052026;28;20242;-65
2023/01/22 08:15:34;;;;;;;1.00;1.00;;;;;;;10.34;100.00;99799.34;5051833;28;20676;-65
2023/01/22 08:18:00;;;;;;;0.47;0.47;;;;;;;10.35;100.00;99801.03;5052195;28;20205;-65
2023/01/22 08:20:29;;;;;;;0.50;0.50;;;;;;;10.33;100.00;99795.09;5051425;28;20200;-65
2023/01/22 08:22:58;;;;;;;0.40;0.40;;;;;;;10.30;100.00;99797.75;5052041;28;20205;-65
2023/01/22 08:25:25;;;;;;;0.57;0.57;;;;;;;10.32;100.00;99807.94;5051793;28;20769;-59
2023/01/22 08:27:52;;;;;;;0.60;0.60;;;;;;;10.35;100.00;99806.16;5051833;28;20274;-58
2023/01/22 08:30:19;;;;;;;0.40;0.40;;;;;;;10.34;100.00;99807.03;5051598;28;20196;-58
2023/01/22 08:32:45;;;;;;;1.03;1.03;;;;;;;10.32;100.00;99801.09;5049775;28;20695;-58
2023/01/22 08:35:12;;;;;;;0.50;0.50;;;;;;;10.35;100.00;99801.03;5051135;28;20204;-59
2023/01/22 08:37:42;;;;;;;1.10;1.00;;;;;;;10.48;100.00;99811.84;5046405;28;20444;-60
2023/01/22 08:40:12;;;;;;;1.03;1.03;;;;;;;10.66;100.00;99816.56;5047739;28;20484;-60
2023/01/22 08:42:39;;;;;;;0.50;0.50;;;;;;;10.76;100.00;99817.19;5045560;28;20582;-60
2023/01/22 08:45:07;;;;;;;0.50;0.50;;;;;;;10.84;100.00;99825.50;5049876;28;20691;-60
2023/01/22 08:47:34;;;;;;;0.40;0.40;;;;;;;10.90;100.00;99835.63;5049727;28;20196;-60
2023/01/22 08:50:01;;;;;;;0.90;0.90;;;;;;;10.92;100.00;99828.75;5047251;28;20200;-59
2023/01/22 08:52:28;;;;;;;0.50;0.50;;;;;;;10.91;100.00;99834.75;5046158;28;20235;-60
2023/01/22 08:54:56;;;;;;;0.40;0.40;;;;;;;10.89;100.00;99834.75;5045128;28;20196;-61
2023/01/22 08:57:23;;;;;;;0.50;0.50;;;;;;;10.95;100.00;99841.50;5049658;28;20587;-61
2023/01/22 08:59:50;;;;;;;0.40;0.40;;;;;;;10.96;100.00;99831.19;5043874;28;20205;-61
2023/01/22 09:02:17;;;;;;;1.07;1.07;;;;;;;11.07;100.00;99829.19;5046651;28;20234;-62
2023/01/22 09:04:44;;;;;;;0.77;0.77;;;;;;;11.16;100.00;99833.25;5046943;28;20197;-62
2023/01/22 09:07:10;;;;;;;5.83;1.03;;;;;;;11.24;100.00;99833.91;5048501;28;20227;-63
2023/01/22 09:09:37;;;;;;;0.40;0.40;;;;;;;11.31;100.00;99840.53;5046386;28;20211;-62
2023/01/22 09:12:06;;;;;;;0.50;0.50;;;;;;;11.35;100.00;99829.31;5050188;28;20204;-63
2023/01/22 09:14:32;;;;;;;0.50;0.50;;;;;;;11.44;100.00;99833.34;5048567;28;20634;-63
2023/01/22 09:16:59;;;;;;;0.50;0.50;;;;;;;11.48;100.00;99830.66;5050364;28;20258;-62
2023/01/22 09:19:26;;;;;;;0.70;0.70;;;;;;;11.56;100.00;99833.03;5051052;28;20208;-63
2023/01/22 09:21:53;;;;;;;2.27;1.53;;;;;;;11.58;100.00;99831.25;5050795;28;20205;-62
2023/01/22 09:24:19;;;;;;;0.90;0.90;;;;;;;11.66;100.00;99829.34;5048587;28;22096;-63
2023/01/22 09:26:46;;;;;;;1.53;1.50;;;;;;;11.65;100.00;99822.50;5048862;28;20223;-63
2023/01/22 09:29:14;;;;;;;1.27;1.27;;;;;;;11.72;100.00;99818.09;5050929;28;20634;-63
2023/01/22 09:31:41;;;;;;;0.97;0.97;;;;;;;11.77;100.00;99818.78;5050500;28;20196;-63
2023/01/22 09:34:08;;;;;;;0.50;0.50;;;;;;;11.81;100.00;99813.53;5050807;28;20580;-63
2023/01/22 09:36:35;;;;;;;0.73;0.73;;;;;;;11.92;100.00;99818.38;5051218;28;20196;-63
2023/01/22 09:39:02;;;;;;;0.70;0.70;;;;;;;11.94;100.00;99811.44;5050752;28;20207;-63
2023/01/22 09:41:32;;;;;;;0.60;0.60;;;;;;;11.94;100.00;99811.44;5050327;28;20203;-63
2023/01/22 09:44:02;;;;;;;0.50;0.50;;;;;;;11.82;100.00;99810.06;5048657;28;20216;-63
2023/01/22 09:46:34;;;;;;;0.50;0.50;;;;;;;11.76;100.00;99812.78;5050171;28;20274;-63
2023/01/22 09:49:07;;;;;;;0.50;0.50;;;;;;;11.73;100.00;99812.88;5050832;28;20200;-62
2023/01/22 09:51:34;;;;;;;0.40;0.40;;;;;;;11.72;100.00;99813.78;5049841;28;20201;-63
2023/01/22 09:54:03;;;;;;;0.63;0.63;;;;;;;11.70;100.00;99804.38;5049485;28;20205;-63
2023/01/22 09:56:36;;;;;;;0.60;0.60;;;;;;;11.65;100.00;99811.41;5050582;28;20568;-64
2023/01/22 09:59:06;;;;;;;0.60;0.60;;;;;;;11.61;100.00;99805.50;5047533;28;20242;-62
2023/01/22 10:01:35;;;;;;;0.40;0.40;;;;;;;11.38;100.00;99765.06;5049301;28;20228;-63
2023/01/22 10:04:06;;;;;;;0.50;0.50;;;;;;;11.67;100.00;99799.34;5050307;28;20200;-63
2023/01/22 10:06:34;;;;;;;0.50;0.50;;;;;;;11.65;100.00;99803.69;5049175;28;20216;-62
2023/01/22 10:09:12;;;;;;;0.50;0.50;;;;;;;11.62;100.00;99811.47;5047849;28;20204;-63
2023/01/22 10:11:39;;;;;;;0.50;0.50;;;;;;;11.54;100.00;99799.69;5050670;28;20633;-63
2023/01/22 10:14:12;;;;;;;0.60;0.60;;;;;;;11.64;100.00;99807.13;5052328;28;20219;-63
2023/01/22 10:16:40;;;;;;;0.50;0.50;;;;;;;11.66;100.00;99802.81;5050972;28;20204;-63
2023/01/22 10:19:26;;;;;;;0.50;0.50;;;;;;;11.71;100.00;99806.13;5054575;28;20196;-63
2023/01/22 10:21:58;;;;;;;0.70;0.70;;;;;;;11.67;100.00;99799.34;5053733;28;20683;-63
2023/01/22 10:24:25;;;;;;;0.40;0.40;;;;;;;11.66;100.00;99807.94;5054044;28;20250;-63
2023/01/22 10:26:54;;;;;;;1.17;1.17;;;;;;;11.70;100.00;99799.25;5053870;28;20223;-62
2023/01/22 10:29:31;;;;;;;0.50;0.50;;;;;;;11.64;100.00;99807.97;5051837;28;20204;-63
2023/01/22 10:32:01;;;;;;;1.10;1.10;;;;;;;11.59;100.00;99797.84;5053694;28;20258;-62
2023/01/22 10:34:31;;;;;;;0.90;0.90;;;;;;;11.52;100.00;99788.63;5053051;28;20209;-63
2023/01/22 10:37:02;;;;;;;0.73;0.73;;;;;;;11.60;100.00;99804.66;5053879;28;20255;-63
2023/01/22 10:39:39;;;;;;;0.87;0.87;;;;;;;11.63;100.00;99803.75;5051437;28;20200;-63
2023/01/22 10:42:05;;;;;;;0.60;0.60;;;;;;;11.58;100.00;99800.44;5053319;28;20200;-63
2023/01/22 10:44:32;;;;;;;0.50;0.50;;;;;;;11.63;100.00;99802.91;5053479;28;20630;-63
2023/01/22 10:47:17;;;;;;;0.60;0.60;;;;;;;11.44;100.00;99782.84;5051814;28;20208;-63
2023/01/22 10:49:44;;;;;;;0.47;0.47;;;;;;;11.63;100.00;99800.34;5053849;28;20288;-63
2023/01/22 10:52:22;;;;;;;0.80;0.80;;;;;;;11.57;100.00;99786.75;5053573;28;20213;-64
2023/01/22 10:54:54;;;;;;;1.10;1.10;;;;;;;11.64;100.00;99802.00;5051518;28;20692;-65
2023/01/22 10:57:22;;;;;;;0.50;0.50;;;;;;;11.68;100.00;99795.91;5050277;28;20196;-64
2023/01/22 10:59:52;;;;;;;0.90;0.90;;;;;;;11.70;100.00;99794.13;5053382;28;20557;-64
2023/01/22 11:02:23;;;;;;;10.10;2.00;;;;;;;11.65;100.00;99781.44;5052025;28;20262;-65
2023/01/22 11:04:51;;;;;;;0.63;0.63;;;;;;;11.76;100.00;99783.72;5053258;28;20672;-64
2023/01/22 11:07:21;;;;;;;0.50;0.50;;;;;;;11.87;100.00;99777.38;5051206;28;20278;-64
2023/01/22 11:09:52;;;;;;;2.13;0.83;;;;;;;11.91;100.00;99785.84;5047804;28;20204;-64
2023/01/22 11:12:22;;;;;;;0.97;0.97;;;;;;;11.74;100.00;99780.34;5045603;28;20212;-63
2023/01/22 11:15:02;;;;;;;0.50;0.50;;;;;;;11.71;100.00;99788.13;5051691;28;20209;-63
2023/01/22 11:17:36;;;;;;;0.40;0.40;;;;;;;11.67;100.00;99792.47;5052654;28;20254;-62
2023/01/22 11:20:14;;;;;;;0.60;0.60;;;;;;;11.68;100.00;99795.91;5048738;28;20210;-63
2023/01/22 11:22:45;;;;;;;0.60;0.60;;;;;;;11.62;100.00;99791.78;5049091;28;20201;-63
2023/01/22 11:25:12;;;;;;;0.50;0.50;;;;;;;11.68;100.00;99791.59;5052425;28;20197;-62
2023/01/22 11:28:00;;;;;;;0.30;0.30;;;;;;;11.76;100.00;99794.00;5051558;28;20290;-63
2023/01/22 11:30:57;;;;;;;3.00;1.33;;;;;;;11.78;100.00;99795.63;5047494;28;20207;-63
2023/01/22 11:33:44;;;;;;;0.60;0.60;;;;;;;11.73;100.00;99794.09;5050068;28;20630;-62
2023/01/22 11:36:22;;;;;;;0.73;0.73;;;;;;;11.67;100.00;99804.47;5050768;28;20199;-62
2023/01/22 11:38:54;;;;;;;0.60;0.60;;;;;;;11.60;100.00;99788.41;5051660;28;20196;-62
2023/01/22 11:41:34;;;;;;;1.03;1.03;;;;;;;11.57;100.00;99798.75;5050976;28;20641;-62
2023/01/22 11:44:29;;;;;;;1.10;1.10;;;;;;;11.54;100.00;99799.69;5049681;28;20621;-62
2023/01/22 11:47:12;;;;;;;0.80;0.80;;;;;;;11.58;100.00;99814.13;5051745;28;20216;-63